createdAt,value
2023-05-13T00:00:55.522Z,97671.63
2023-05-13T00:03:22.271Z,97678.81
2023-05-13T00:05:48.898Z,97675.44
2023-05-13T00:08:15.548Z,97680.91
2023-05-13T00:10:42.044Z,97672.31
2023-05-13T00:13:08.762Z,97677.56
2023-05-13T00:15:35.200Z,97671.22
2023-05-13T00:18:01.708Z,97680.66
2023-05-13T00:20:28.309Z,97676.19
2023-05-13T00:22:54.733Z,97665.41
2023-05-13T00:25:21.204Z,97668.25
2023-05-13T00:27:47.701Z,97666.00
2023-05-13T00:30:14.183Z,97672.22
2023-05-13T00:32:40.821Z,97671.34
2023-05-13T00:35:08.901Z,97676.03
2023-05-13T00:37:35.832Z,97670.59
2023-05-13T00:40:02.380Z,97668.25
2023-05-13T00:42:28.840Z,97674.06
2023-05-13T00:44:55.384Z,97664.13
2023-05-13T00:47:22.414Z,97666.84
2023-05-13T00:49:49.179Z,97669.00
2023-05-13T00:52:15.759Z,97676.75
2023-05-13T00:54:42.306Z,97677.00
2023-05-13T00:57:08.803Z,97674.91
2023-05-13T00:59:35.344Z,97684.22
2023-05-13T01:02:16.807Z,97682.72
2023-05-13T01:04:49.655Z,97687.41
2023-05-13T01:07:34.902Z,97678.66
2023-05-13T01:10:23.951Z,97687.16
2023-05-13T01:12:53.410Z,97684.66
2023-05-13T01:15:25.497Z,97688.75
2023-05-13T01:18:11.057Z,97686.44
2023-05-13T01:20:40.625Z,97690.03
2023-05-13T01:23:07.217Z,97692.06
2023-05-13T01:25:34.789Z,97688.25
2023-05-13T01:28:01.523Z,97693.72
2023-05-13T01:30:28.114Z,97691.38
2023-05-13T01:32:54.654Z,97689.31
2023-05-13T01:35:22.077Z,97697.78
2023-05-13T01:37:50.182Z,97684.66
2023-05-13T01:40:31.153Z,97689.09
2023-05-13T01:43:01.289Z,97685.72
2023-05-13T01:45:29.819Z,97688.41
2023-05-13T01:47:56.996Z,97691.75
2023-05-13T01:50:24.767Z,97681.06
2023-05-13T01:52:51.399Z,97691.47
2023-05-13T01:55:18.107Z,97684.69
2023-05-13T01:57:46.842Z,97687.72
2023-05-13T02:00:13.628Z,97685.41
2023-05-13T02:02:43.052Z,97687.72
2023-05-13T02:05:09.962Z,97688.34
2023-05-13T02:07:38.013Z,97690.78
2023-05-13T02:10:04.686Z,97692.47
2023-05-13T02:12:32.420Z,97688.75
2023-05-13T02:14:59.102Z,97700.19
2023-05-13T02:17:25.883Z,97698.50
2023-05-13T02:19:53.831Z,97702.13
2023-05-13T02:22:20.343Z,97702.47
2023-05-13T02:24:46.796Z,97704.72
2023-05-13T02:27:16.168Z,97703.72
2023-05-13T02:29:42.708Z,97704.97
2023-05-13T02:32:09.720Z,97700.84
2023-05-13T02:34:36.327Z,97706.59
2023-05-13T02:37:03.821Z,97708.66
2023-05-13T02:39:30.882Z,97710.41
2023-05-13T02:41:59.808Z,97694.94
2023-05-13T02:44:31.147Z,97705.44
2023-05-13T02:46:57.595Z,97712.69
2023-05-13T02:49:24.169Z,97706.50
2023-05-13T02:51:50.719Z,97710.22
2023-05-13T02:54:21.654Z,97709.22
2023-05-13T02:56:48.376Z,97713.97
2023-05-13T02:59:14.841Z,97707.56
2023-05-13T03:01:41.688Z,97712.81
2023-05-13T03:04:08.248Z,97712.38
2023-05-13T03:06:34.772Z,97712.06
2023-05-13T03:09:01.426Z,97711.63
2023-05-13T03:11:28.028Z,97707.88
2023-05-13T03:13:54.486Z,97713.75
2023-05-13T03:16:21.419Z,97711.28
2023-05-13T03:18:48.016Z,97704.88
2023-05-13T03:21:15.470Z,97714.97
2023-05-13T03:23:42.007Z,97711.84
2023-05-13T03:26:08.633Z,97711.78
2023-05-13T03:28:35.602Z,97716.50
2023-05-13T03:31:02.189Z,97715.00
2023-05-13T03:33:30.950Z,97717.56
2023-05-13T03:35:57.497Z,97723.81
2023-05-13T03:38:28.438Z,97718.19
2023-05-13T03:40:54.939Z,97718.41
2023-05-13T03:43:21.384Z,97722.31
2023-05-13T03:45:54.069Z,97718.34
2023-05-13T03:48:22.338Z,97727.13
2023-05-13T03:50:49.016Z,97726.31
2023-05-13T03:53:17.108Z,97732.53
2023-05-13T03:55:45.919Z,97728.91
2023-05-13T03:58:15.826Z,97732.06
2023-05-13T04:00:42.799Z,97728.91
2023-05-13T04:03:09.487Z,97726.72
2023-05-13T04:05:36.045Z,97725.41
2023-05-13T04:08:02.511Z,97720.16
2023-05-13T04:10:28.969Z,97732.81
2023-05-13T04:12:57.258Z,97734.19
2023-05-13T04:15:24.026Z,97731.47
2023-05-13T04:17:51.305Z,97734.19
2023-05-13T04:20:18.017Z,97733.88
2023-05-13T04:22:44.520Z,97732.66
2023-05-13T04:25:11.120Z,97734.16
2023-05-13T04:27:37.607Z,97739.44
2023-05-13T04:30:11.036Z,97738.78
2023-05-13T04:32:39.525Z,97735.38
2023-05-13T04:35:09.446Z,97742.06
2023-05-13T04:37:37.160Z,97750.69
2023-05-13T04:40:07.082Z,97742.72
2023-05-13T04:42:33.729Z,97741.94
2023-05-13T04:45:01.148Z,97749.31
2023-05-13T04:47:27.719Z,97745.91
2023-05-13T04:49:54.244Z,97748.47
2023-05-13T04:52:21.089Z,97757.78
2023-05-13T04:54:47.546Z,97752.03
2023-05-13T04:57:14.122Z,97755.13
2023-05-13T04:59:40.711Z,97756.06
2023-05-13T05:02:08.589Z,97762.84
2023-05-13T05:04:35.274Z,97755.59
2023-05-13T05:07:05.068Z,97762.53
2023-05-13T05:09:32.132Z,97762.19
2023-05-13T05:11:59.648Z,97759.88
2023-05-13T05:14:29.089Z,97765.63
2023-05-13T05:16:55.773Z,97758.88
2023-05-13T05:19:24.333Z,97766.69
2023-05-13T05:21:51.970Z,97776.41
2023-05-13T05:24:18.637Z,97767.09
2023-05-13T05:26:45.330Z,97765.94
2023-05-13T05:29:11.886Z,97775.97
2023-05-13T05:31:38.767Z,97768.03
2023-05-13T05:34:05.483Z,97771.47
2023-05-13T05:36:32.518Z,97778.09
2023-05-13T05:38:59.160Z,97778.41
2023-05-13T05:41:32.315Z,97777.31
2023-05-13T05:43:58.844Z,97784.53
2023-05-13T05:46:25.488Z,97775.03
2023-05-13T05:48:52.164Z,97785.72
2023-05-13T05:51:19.869Z,97786.72
2023-05-13T05:53:46.453Z,97789.75
2023-05-13T05:56:15.543Z,97794.81
2023-05-13T05:58:44.227Z,97797.00
2023-05-13T06:01:11.191Z,97791.88
2023-05-13T06:03:38.099Z,97804.47
2023-05-13T06:06:04.908Z,97803.75
2023-05-13T06:08:31.495Z,97810.09
2023-05-13T06:10:58.588Z,97802.78
2023-05-13T06:13:26.158Z,97814.22
2023-05-13T06:15:52.752Z,97799.78
2023-05-13T06:18:19.291Z,97812.44
2023-05-13T06:20:46.049Z,97811.03
2023-05-13T06:23:14.376Z,97810.09
2023-05-13T06:25:41.185Z,97809.44
2023-05-13T06:28:08.564Z,97819.56
2023-05-13T06:30:35.052Z,97816.44
2023-05-13T06:33:02.658Z,97821.31
2023-05-13T06:35:30.442Z,97816.84
2023-05-13T06:37:57.608Z,97815.59
2023-05-13T06:40:24.354Z,97820.38
2023-05-13T06:42:51.228Z,97825.06
2023-05-13T06:45:28.081Z,97827.63
2023-05-13T06:47:54.868Z,97825.34
2023-05-13T06:50:21.588Z,97823.28
2023-05-13T06:52:48.327Z,97832.06
2023-05-13T06:55:16.543Z,97830.56
2023-05-13T06:57:46.644Z,97835.81
2023-05-13T07:00:14.128Z,97839.09
2023-05-13T07:02:41.158Z,97841.84
2023-05-13T07:05:10.835Z,97838.63
2023-05-13T07:07:37.838Z,97837.81
2023-05-13T07:10:04.489Z,97844.56
2023-05-13T07:12:31.161Z,97842.56
2023-05-13T07:14:58.071Z,97843.22
2023-05-13T07:17:24.653Z,97850.31
2023-05-13T07:19:51.596Z,97838.63
2023-05-13T07:22:18.323Z,97846.31
2023-05-13T07:24:44.771Z,97855.72
2023-05-13T07:27:11.242Z,97854.44
2023-05-13T07:29:37.709Z,97856.16
2023-05-13T07:32:05.151Z,97857.84
2023-05-13T07:34:32.406Z,97852.56
2023-05-13T07:36:58.915Z,97854.78
2023-05-13T07:39:26.592Z,97850.66
2023-05-13T07:41:53.132Z,97851.22
2023-05-13T07:44:19.584Z,97849.25
2023-05-13T07:46:46.281Z,97846.91
2023-05-13T07:49:12.789Z,97856.97
2023-05-13T07:51:39.237Z,97847.22
2023-05-13T07:54:05.697Z,97857.72
2023-05-13T07:56:32.168Z,97850.25
2023-05-13T07:58:58.674Z,97850.03
2023-05-13T08:01:25.143Z,97854.97
2023-05-13T08:03:51.798Z,97855.13
2023-05-13T08:06:18.400Z,97845.44
2023-05-13T08:08:44.842Z,97845.16
2023-05-13T08:11:11.489Z,97851.56
2023-05-13T08:13:38.476Z,97858.38
2023-05-13T08:16:07.109Z,97855.31
2023-05-13T08:18:33.722Z,97852.91
2023-05-13T08:21:00.411Z,97862.97
2023-05-13T08:23:40.527Z,97867.00
2023-05-13T08:26:11.487Z,97864.81
2023-05-13T08:28:38.061Z,97861.00
2023-05-13T08:31:04.670Z,97859.31
2023-05-13T08:33:31.468Z,97858.16
2023-05-13T08:35:59.448Z,97859.81
2023-05-13T08:38:25.997Z,97853.66
2023-05-13T08:40:52.899Z,97862.16
2023-05-13T08:43:19.527Z,97861.00
2023-05-13T08:45:46.932Z,97867.03
2023-05-13T08:48:15.541Z,97863.25
2023-05-13T08:50:42.560Z,97864.63
2023-05-13T08:53:09.986Z,97871.66
2023-05-13T08:55:36.425Z,97872.72
2023-05-13T08:58:03.069Z,97873.78
2023-05-13T09:00:29.601Z,97867.53
2023-05-13T09:02:56.142Z,97867.03
2023-05-13T09:05:23.129Z,97873.63
2023-05-13T09:07:49.956Z,97866.25
2023-05-13T09:10:17.662Z,97864.25
2023-05-13T09:12:51.862Z,97870.09
2023-05-13T09:15:19.815Z,97873.13
2023-05-13T09:17:52.294Z,97871.97
2023-05-13T09:20:20.027Z,97877.16
2023-05-13T09:22:57.343Z,97872.50
2023-05-13T09:25:24.748Z,97870.03
2023-05-13T09:27:52.500Z,97872.41
2023-05-13T09:30:21.771Z,97876.16
2023-05-13T09:33:07.443Z,97882.75
2023-05-13T09:35:34.509Z,97880.91
2023-05-13T09:38:01.010Z,97875.91
2023-05-13T09:40:27.589Z,97881.91
2023-05-13T09:42:56.998Z,97875.09
2023-05-13T09:45:23.850Z,97879.47
2023-05-13T09:47:52.413Z,97877.81
2023-05-13T09:50:19.530Z,97882.28
2023-05-13T09:52:46.703Z,97878.78
2023-05-13T09:55:13.236Z,97883.88
2023-05-13T09:57:40.821Z,97879.47
2023-05-13T10:00:11.053Z,97874.72
2023-05-13T10:02:45.037Z,97876.50
2023-05-13T10:05:11.723Z,97885.00
2023-05-13T10:07:39.305Z,97878.88
2023-05-13T10:10:07.492Z,97877.06
2023-05-13T10:12:34.118Z,97882.66
2023-05-13T10:15:01.629Z,97878.91
2023-05-13T10:17:29.363Z,97874.19
2023-05-13T10:19:56.412Z,97876.59
2023-05-13T10:22:30.203Z,97874.22
2023-05-13T10:24:58.107Z,97878.63
2023-05-13T10:27:29.421Z,97876.59
2023-05-13T10:29:56.683Z,97871.53
2023-05-13T10:32:27.230Z,97872.84
2023-05-13T10:34:56.897Z,97876.09
2023-05-13T10:37:47.112Z,97875.91
2023-05-13T10:40:20.099Z,97882.66
2023-05-13T10:42:54.095Z,97877.41
2023-05-13T10:45:25.802Z,97883.38
2023-05-13T10:47:52.935Z,97885.41
2023-05-13T10:50:24.075Z,97885.41
2023-05-13T10:52:51.521Z,97886.75
2023-05-13T10:55:21.356Z,97893.19
2023-05-13T10:58:07.231Z,97882.00
2023-05-13T11:00:34.205Z,97886.06
2023-05-13T11:03:09.845Z,97889.72
2023-05-13T11:05:38.956Z,97886.69
2023-05-13T11:08:05.421Z,97885.69
2023-05-13T11:10:32.083Z,97887.00
2023-05-13T11:13:11.618Z,97888.75
2023-05-13T11:16:04.689Z,97889.34
2023-05-13T11:18:31.553Z,97887.94
2023-05-13T11:21:04.389Z,97891.88
2023-05-13T11:23:33.810Z,97887.41
2023-05-13T11:26:12.158Z,97892.94
2023-05-13T11:29:02.690Z,97891.72
2023-05-13T11:31:41.564Z,97898.44
2023-05-13T11:34:12.152Z,97898.09
2023-05-13T11:36:39.764Z,97892.31
2023-05-13T11:39:13.852Z,97890.63
2023-05-13T11:41:41.742Z,97887.97
2023-05-13T11:44:08.262Z,97893.00
2023-05-13T11:46:35.044Z,97896.38
2023-05-13T11:49:01.572Z,97897.41
2023-05-13T11:51:28.742Z,97899.09
2023-05-13T11:54:02.592Z,97900.88
2023-05-13T11:56:29.293Z,97903.59
2023-05-13T11:58:56.189Z,97907.00
2023-05-13T12:01:22.710Z,97901.88
2023-05-13T12:03:49.233Z,97907.50
2023-05-13T12:06:15.851Z,97904.91
2023-05-13T12:08:46.198Z,97910.78
2023-05-13T12:11:13.327Z,97910.00
2023-05-13T12:13:41.133Z,97910.00
2023-05-13T12:16:08.048Z,97911.25
2023-05-13T12:18:34.690Z,97906.50
2023-05-13T12:21:13.052Z,97916.16
2023-05-13T12:23:40.616Z,97919.69
2023-05-13T12:26:07.829Z,97917.34
2023-05-13T12:28:34.279Z,97921.75
2023-05-13T12:31:02.019Z,97925.16
2023-05-13T12:33:33.298Z,97928.75
2023-05-13T12:36:21.682Z,97928.59
2023-05-13T12:38:57.532Z,97930.53
2023-05-13T12:41:26.648Z,97930.34
2023-05-13T12:44:00.339Z,97921.22
2023-05-13T12:46:27.112Z,97926.25
2023-05-13T12:48:57.159Z,97923.22
2023-05-13T12:51:24.018Z,97922.75
2023-05-13T12:53:50.535Z,97926.53
2023-05-13T12:56:17.093Z,97921.25
2023-05-13T12:58:43.658Z,97927.59
2023-05-13T13:01:10.275Z,97926.16
2023-05-13T13:03:36.860Z,97934.56
2023-05-13T13:06:03.559Z,97927.97
2023-05-13T13:08:30.814Z,97927.97
2023-05-13T13:10:58.778Z,97921.13
2023-05-13T13:13:25.238Z,97923.25
2023-05-13T13:15:51.747Z,97917.84
2023-05-13T13:18:18.642Z,97919.88
2023-05-13T13:20:45.137Z,97915.16
2023-05-13T13:23:11.682Z,97903.03
2023-05-13T13:25:38.137Z,97908.41
2023-05-13T13:28:04.696Z,97898.97
2023-05-13T13:30:31.262Z,97899.44
2023-05-13T13:32:57.894Z,97898.97
2023-05-13T13:35:24.346Z,97906.03
2023-05-13T13:37:50.827Z,97905.75
2023-05-13T13:40:18.443Z,97899.31
2023-05-13T13:42:45.291Z,97898.59
2023-05-13T13:45:12.618Z,97902.69
2023-05-13T13:47:39.290Z,97899.31
2023-05-13T13:50:06.362Z,97901.50
2023-05-13T13:52:32.957Z,97904.69
2023-05-13T13:54:59.474Z,97900.31
2023-05-13T13:57:25.923Z,97897.59
2023-05-13T13:59:52.376Z,97895.25
2023-05-13T14:02:18.977Z,97893.88
2023-05-13T14:04:46.434Z,97894.19
2023-05-13T14:07:13.108Z,97890.84
2023-05-13T14:09:39.553Z,97895.22
2023-05-13T14:12:06.124Z,97893.22
2023-05-13T14:14:32.665Z,97902.31
2023-05-13T14:16:59.142Z,97894.53
2023-05-13T14:19:25.932Z,97896.59
2023-05-13T14:21:52.356Z,97898.25
2023-05-13T14:24:18.823Z,97905.00
2023-05-13T14:26:45.358Z,97895.56
2023-05-13T14:29:11.803Z,97888.47
2023-05-13T14:31:38.399Z,97894.22
2023-05-13T14:34:07.836Z,97889.13
2023-05-13T14:36:34.666Z,97889.13
2023-05-13T14:39:01.157Z,97892.34
2023-05-13T14:41:29.226Z,97902.16
2023-05-13T14:43:55.670Z,97896.22
2023-05-13T14:46:22.211Z,97889.81
2023-05-13T14:48:48.737Z,97883.38
2023-05-13T14:51:15.542Z,97895.22
2023-05-13T14:53:42.313Z,97891.84
2023-05-13T14:56:08.843Z,97891.50
2023-05-13T14:58:35.475Z,97886.06
2023-05-13T15:01:02.203Z,97877.97
2023-05-13T15:03:28.764Z,97887.44
2023-05-13T15:05:56.054Z,97884.88
2023-05-13T15:08:22.666Z,97885.41
2023-05-13T15:10:49.181Z,97889.44
2023-05-13T15:13:15.750Z,97890.50
2023-05-13T15:15:42.381Z,97889.13
2023-05-13T15:18:08.901Z,97892.59
2023-05-13T15:20:35.588Z,97892.22
2023-05-13T15:23:02.037Z,97888.75
2023-05-13T15:25:28.486Z,97882.25
2023-05-13T15:27:54.946Z,97885.00
2023-05-13T15:30:21.547Z,97879.94
2023-05-13T15:32:48.180Z,97884.69
2023-05-13T15:35:15.562Z,97877.25
2023-05-13T15:37:42.706Z,97883.69
2023-05-13T15:40:09.458Z,97889.91
2023-05-13T15:42:36.762Z,97895.81
2023-05-13T15:45:03.684Z,97903.53
2023-05-13T15:47:30.532Z,97899.22
2023-05-13T15:49:57.196Z,97893.47
2023-05-13T15:52:23.625Z,97901.50
2023-05-13T15:54:50.229Z,97899.19
2023-05-13T15:57:19.064Z,97903.47
2023-05-13T15:59:45.640Z,97900.34
2023-05-13T16:02:12.151Z,97899.44
2023-05-13T16:04:38.848Z,97899.59
2023-05-13T16:07:10.728Z,97892.38
2023-05-13T16:09:40.623Z,97890.00
2023-05-13T16:12:07.577Z,97884.81
2023-05-13T16:14:34.531Z,97880.25
2023-05-13T16:17:00.982Z,97873.78
2023-05-13T16:19:27.997Z,97880.28
2023-05-13T16:21:54.513Z,97875.88
2023-05-13T16:24:22.343Z,97877.19
2023-05-13T16:26:48.897Z,97879.94
2023-05-13T16:29:15.360Z,97875.19
2023-05-13T16:31:41.858Z,97877.19
2023-05-13T16:34:08.315Z,97877.56
2023-05-13T16:36:35.027Z,97879.06
2023-05-13T16:39:01.625Z,97871.50
2023-05-13T16:41:28.119Z,97879.94
2023-05-13T16:43:54.661Z,97873.34
2023-05-13T16:46:21.141Z,97877.25
2023-05-13T16:48:47.689Z,97863.38
2023-05-13T16:51:14.214Z,97868.75
2023-05-13T16:53:42.092Z,97870.06
2023-05-13T16:56:08.559Z,97878.59
2023-05-13T16:58:35.055Z,97886.31
2023-05-13T17:01:01.604Z,97880.22
2023-05-13T17:03:28.183Z,97890.28
2023-05-13T17:05:54.894Z,97885.53
2023-05-13T17:08:24.264Z,97877.28
2023-05-13T17:10:50.763Z,97882.50
2023-05-13T17:13:19.616Z,97882.09
2023-05-13T17:15:46.770Z,97888.47
2023-05-13T17:18:13.402Z,97880.22
2023-05-13T17:20:39.861Z,97881.06
2023-05-13T17:23:06.430Z,97884.25
2023-05-13T17:25:32.949Z,97892.50
2023-05-13T17:27:59.379Z,97886.75
2023-05-13T17:30:25.879Z,97889.91
2023-05-13T17:32:52.490Z,97893.66
2023-05-13T17:35:19.036Z,97893.19
2023-05-13T17:37:45.482Z,97893.00
2023-05-13T17:40:12.216Z,97896.25
2023-05-13T17:42:40.574Z,97897.41
2023-05-13T17:45:07.461Z,97890.28
2023-05-13T17:47:34.078Z,97889.59
2023-05-13T17:50:00.635Z,97890.34
2023-05-13T17:52:27.115Z,97885.00
2023-05-13T17:54:53.625Z,97888.34
2023-05-13T17:57:20.102Z,97886.28
2023-05-13T17:59:47.911Z,97893.19
2023-05-13T18:02:14.465Z,97897.00
2023-05-13T18:04:42.004Z,97896.69
2023-05-13T18:07:08.773Z,97891.91
2023-05-13T18:09:35.635Z,97895.34
2023-05-13T18:12:03.203Z,97892.66
2023-05-13T18:14:32.294Z,97897.88
2023-05-13T18:16:59.255Z,97892.91
2023-05-13T18:19:25.769Z,97895.69
2023-05-13T18:21:52.230Z,97900.09
2023-05-13T18:24:18.671Z,97895.63
2023-05-13T18:26:45.173Z,97897.56
2023-05-13T18:29:11.615Z,97898.41
2023-05-13T18:31:38.137Z,97895.09
2023-05-13T18:34:04.619Z,97893.03
2023-05-13T18:36:31.159Z,97891.28
2023-05-13T18:38:58.003Z,97891.59
2023-05-13T18:41:24.597Z,97890.22
2023-05-13T18:43:51.465Z,97896.06
2023-05-13T18:46:17.958Z,97901.78
2023-05-13T18:48:44.529Z,97905.81
2023-05-13T18:51:11.546Z,97899.25
2023-05-13T18:53:38.106Z,97903.47
2023-05-13T18:56:04.726Z,97903.19
2023-05-13T18:58:31.494Z,97898.13
2023-05-13T19:00:58.001Z,97904.84
2023-05-13T19:03:24.630Z,97905.13
2023-05-13T19:05:52.090Z,97902.41
2023-05-13T19:08:18.757Z,97905.50
2023-05-13T19:10:45.252Z,97912.94
2023-05-13T19:13:11.757Z,97909.22
2023-05-13T19:15:38.206Z,97911.22
2023-05-13T19:18:04.760Z,97923.94
2023-05-13T19:20:31.380Z,97914.28
2023-05-13T19:22:57.864Z,97920.88
2023-05-13T19:25:24.328Z,97925.06
2023-05-13T19:27:51.103Z,97925.00
2023-05-13T19:30:17.635Z,97925.84
2023-05-13T19:32:44.212Z,97936.50
2023-05-13T19:35:11.385Z,97931.06
2023-05-13T19:37:37.914Z,97933.97
2023-05-13T19:40:04.825Z,97927.56
2023-05-13T19:42:31.341Z,97940.03
2023-05-13T19:44:57.985Z,97926.38
2023-05-13T19:47:26.714Z,97933.78
2023-05-13T19:49:53.310Z,97920.97
2023-05-13T19:52:19.759Z,97929.47
2023-05-13T19:54:46.330Z,97936.03
2023-05-13T19:57:12.831Z,97930.06
2023-05-13T19:59:41.640Z,97920.66
2023-05-13T20:02:08.660Z,97923.34
2023-05-13T20:04:35.614Z,97920.97
2023-05-13T20:07:02.051Z,97921.19
2023-05-13T20:09:28.499Z,97915.94
2023-05-13T20:11:55.019Z,97910.50
2023-05-13T20:14:27.595Z,97913.50
2023-05-13T20:16:54.491Z,97911.66
2023-05-13T20:19:21.182Z,97906.81
2023-05-13T20:21:47.932Z,97902.72
2023-05-13T20:24:14.369Z,97898.06
2023-05-13T20:26:40.873Z,97900.09
2023-05-13T20:29:08.118Z,97901.56
2023-05-13T20:31:34.652Z,97896.28
2023-05-13T20:34:01.442Z,97892.56
2023-05-13T20:36:27.974Z,97898.81
2023-05-13T20:38:54.488Z,97894.56
2023-05-13T20:41:21.777Z,97893.84
2023-05-13T20:43:48.238Z,97890.28
2023-05-13T20:46:16.930Z,97898.72
2023-05-13T20:48:43.655Z,97890.50
2023-05-13T20:51:10.157Z,97888.28
2023-05-13T20:53:37.228Z,97883.69
2023-05-13T20:56:04.096Z,97878.78
2023-05-13T20:58:30.821Z,97880.75
2023-05-13T21:00:57.310Z,97874.66
2023-05-13T21:03:23.865Z,97879.09
2023-05-13T21:05:50.390Z,97882.06
2023-05-13T21:08:17.139Z,97884.75
2023-05-13T21:10:43.599Z,97884.31
2023-05-13T21:13:10.497Z,97879.34
2023-05-13T21:15:37.004Z,97875.94
2023-05-13T21:18:03.637Z,97877.31
2023-05-13T21:20:30.256Z,97868.19
2023-05-13T21:22:56.748Z,97871.19
2023-05-13T21:25:23.205Z,97865.22
2023-05-13T21:27:50.378Z,97870.19
2023-05-13T21:30:16.907Z,97865.13
2023-05-13T21:32:43.457Z,97866.81
2023-05-13T21:35:10.050Z,97868.53
2023-05-13T21:37:36.526Z,97868.91
2023-05-13T21:40:03.140Z,97873.41
2023-05-13T21:42:29.606Z,97865.03
2023-05-13T21:44:57.194Z,97869.47
2023-05-13T21:47:23.725Z,97858.88
2023-05-13T21:49:50.229Z,97860.72
2023-05-13T21:52:17.201Z,97862.56
2023-05-13T21:54:43.709Z,97857.16
2023-05-13T21:57:10.188Z,97859.63
2023-05-13T21:59:36.645Z,97867.16
2023-05-13T22:02:03.186Z,97858.91
2023-05-13T22:04:29.634Z,97867.53
2023-05-13T22:06:56.173Z,97856.91
2023-05-13T22:09:22.759Z,97863.16
2023-05-13T22:11:49.296Z,97863.03
2023-05-13T22:14:15.776Z,97856.56
2023-05-13T22:16:42.327Z,97853.00
2023-05-13T22:19:09.358Z,97855.94
2023-05-13T22:21:36.114Z,97854.50
2023-05-13T22:24:04.805Z,97858.22
2023-05-13T22:26:31.273Z,97856.69
2023-05-13T22:28:57.772Z,97848.63
2023-05-13T22:31:24.292Z,97860.69
2023-05-13T22:33:50.857Z,97853.03
2023-05-13T22:36:17.316Z,97849.78
2023-05-13T22:38:43.980Z,97850.16
2023-05-13T22:41:11.264Z,97845.81
2023-05-13T22:43:37.785Z,97841.75
2023-05-13T22:46:04.349Z,97842.44
2023-05-13T22:48:30.895Z,97849.22
2023-05-13T22:50:58.302Z,97846.13
2023-05-13T22:53:25.195Z,97843.41
2023-05-13T22:55:51.822Z,97850.50
2023-05-13T22:58:18.809Z,97838.94
2023-05-13T23:00:46.134Z,97831.19
2023-05-13T23:03:12.725Z,97831.25
2023-05-13T23:05:39.187Z,97830.22
2023-05-13T23:08:05.673Z,97825.75
2023-05-13T23:10:33.418Z,97826.06
2023-05-13T23:13:00.028Z,97819.38
2023-05-13T23:15:26.676Z,97820.78
2023-05-13T23:17:53.207Z,97813.53
2023-05-13T23:20:19.685Z,97811.53
2023-05-13T23:22:47.700Z,97812.22
2023-05-13T23:25:14.161Z,97813.31
2023-05-13T23:27:40.638Z,97806.88
2023-05-13T23:30:07.552Z,97801.06
2023-05-13T23:32:34.030Z,97792.56
2023-05-13T23:35:00.481Z,97790.09
2023-05-13T23:37:26.983Z,97780.44
2023-05-13T23:39:53.583Z,97784.16
2023-05-13T23:42:20.107Z,97779.19
2023-05-13T23:44:46.967Z,97780.50
2023-05-13T23:47:13.569Z,97775.75
2023-05-13T23:49:40.100Z,97773.75
2023-05-13T23:52:06.609Z,97775.69
2023-05-13T23:54:33.116Z,97766.34
2023-05-13T23:56:59.559Z,97764.91
2023-05-13T23:59:26.064Z,97758.50
